Serov, Russia
Current Conditions -  °F | °C
As of 11:00 PM on Monday 20 Oct 2014 (Local Time) from USPP Reporting Station
Broken Clouds Broken Clouds  
Wind Chill: -7°   Ceiling: 3300
Heat Index:   Visibility: 6mi
Dew Point:   Wind: 9mph
Humidity: 100%   Direction: 220°SW
Pressure: 29.77"   Gusts: NA
Location:  59.61°N, 60.58°E
Report Text: USPP 201800Z 22004MPS 9999 BKN033 M14/M14 Q1008 21420149 NOSIGRMK QFE745/0993
Loading
Personal Weather Stations






























Interactive Weather Map
Tropical Storm Tracking
New forecast layout! Learn more

10-Day Weather Forecast

Advertisements
Track Severe Weather on mobile